createdAt,value
2023-11-15T00:01:15.563Z,10.59
2023-11-15T00:03:43.201Z,10.62
2023-11-15T00:06:11.435Z,10.61
2023-11-15T00:08:39.245Z,10.64
2023-11-15T00:11:07.456Z,10.66
2023-11-15T00:13:35.664Z,10.62
2023-11-15T00:16:05.672Z,10.53
2023-11-15T00:18:33.535Z,10.45
2023-11-15T00:21:01.253Z,10.41
2023-11-15T00:23:28.946Z,10.41
2023-11-15T00:25:56.547Z,10.45
2023-11-15T00:28:24.197Z,10.43
2023-11-15T00:30:51.767Z,10.37
2023-11-15T00:33:20.858Z,10.37
2023-11-15T00:35:48.682Z,10.35
2023-11-15T00:38:16.474Z,10.39
2023-11-15T00:40:44.247Z,10.45
2023-11-15T00:43:11.841Z,10.43
2023-11-15T00:45:39.490Z,10.42
2023-11-15T00:48:07.467Z,10.47
2023-11-15T00:50:36.512Z,10.45
2023-11-15T00:53:05.928Z,10.43
2023-11-15T00:55:33.506Z,10.46
2023-11-15T00:58:01.298Z,10.41
2023-11-15T01:00:33.650Z,10.39
2023-11-15T01:03:02.527Z,10.44
2023-11-15T01:05:30.747Z,10.39
2023-11-15T01:07:59.877Z,10.46
2023-11-15T01:10:27.526Z,10.50
2023-11-15T01:12:55.705Z,10.39
2023-11-15T01:15:24.070Z,10.40
2023-11-15T01:17:51.866Z,10.48
2023-11-15T01:20:19.897Z,10.44
2023-11-15T01:22:47.647Z,10.43
2023-11-15T01:25:16.724Z,10.34
2023-11-15T01:27:44.325Z,10.39
2023-11-15T01:30:12.688Z,10.12
2023-11-15T01:32:40.348Z,10.25
2023-11-15T01:35:09.099Z,10.40
2023-11-15T01:37:36.738Z,10.47
2023-11-15T01:40:07.626Z,10.50
2023-11-15T01:42:36.774Z,10.54
2023-11-15T01:45:04.886Z,10.47
2023-11-15T01:47:32.919Z,10.39
2023-11-15T01:50:03.560Z,10.34
2023-11-15T01:52:31.154Z,10.28
2023-11-15T01:54:59.817Z,10.27
2023-11-15T01:57:27.514Z,10.31
2023-11-15T01:59:57.022Z,10.25
2023-11-15T02:02:24.768Z,10.21
2023-11-15T02:04:52.346Z,10.35
2023-11-15T02:07:20.224Z,10.40
2023-11-15T02:09:47.917Z,10.28
2023-11-15T02:12:15.540Z,10.10
2023-11-15T02:14:43.318Z,9.86
2023-11-15T02:17:12.609Z,9.92
2023-11-15T02:19:40.232Z,10.01
2023-11-15T02:22:07.839Z,9.97
2023-11-15T02:24:38.398Z,10.08
2023-11-15T02:27:06.431Z,9.75
2023-11-15T02:29:34.078Z,9.98
2023-11-15T02:32:01.635Z,10.12
2023-11-15T02:34:29.173Z,10.05
2023-11-15T02:36:56.814Z,10.07
2023-11-15T02:39:24.425Z,10.19
2023-11-15T02:41:53.424Z,10.13
2023-11-15T02:44:21.004Z,10.04
2023-11-15T02:46:48.624Z,10.01
2023-11-15T02:49:16.262Z,9.99
2023-11-15T02:51:43.858Z,10.07
2023-11-15T02:54:11.390Z,10.13
2023-11-15T02:56:38.951Z,10.14
2023-11-15T02:59:07.862Z,10.02
2023-11-15T03:01:35.600Z,10.09
2023-11-15T03:04:03.648Z,9.98
2023-11-15T03:06:31.259Z,10.00
2023-11-15T03:08:58.859Z,10.00
2023-11-15T03:11:26.604Z,9.93
2023-11-15T03:13:54.308Z,9.99
2023-11-15T03:16:23.310Z,9.95
2023-11-15T03:18:51.180Z,9.94
2023-11-15T03:21:18.759Z,9.86
2023-11-15T03:23:46.368Z,9.81
2023-11-15T03:26:13.945Z,9.92
2023-11-15T03:28:41.530Z,9.88
2023-11-15T03:31:11.462Z,9.89
2023-11-15T03:33:40.548Z,9.82
2023-11-15T03:36:10.135Z,9.77
2023-11-15T03:38:38.310Z,9.61
2023-11-15T03:41:06.858Z,9.66
2023-11-15T03:43:34.506Z,9.64
2023-11-15T03:46:02.105Z,9.59
2023-11-15T03:48:30.752Z,9.56
2023-11-15T03:50:59.857Z,9.60
2023-11-15T03:53:27.521Z,9.57
2023-11-15T03:55:55.131Z,9.68
2023-11-15T03:58:22.673Z,9.61
2023-11-15T04:00:50.270Z,9.56
2023-11-15T04:03:22.578Z,9.57
2023-11-15T04:05:51.169Z,9.65
2023-11-15T04:08:20.469Z,9.63
2023-11-15T04:10:49.634Z,9.61
2023-11-15T04:13:18.762Z,10.69
2023-11-15T04:15:46.450Z,11.41
2023-11-15T04:18:14.260Z,12.42
2023-11-15T04:20:41.924Z,13.02
2023-11-15T04:23:09.625Z,13.46
2023-11-15T04:25:38.556Z,11.87
2023-11-15T04:28:07.100Z,12.73
2023-11-15T04:30:34.709Z,12.69
2023-11-15T04:33:02.352Z,12.05
2023-11-15T04:35:30.177Z,12.49
2023-11-15T04:37:57.867Z,11.70
2023-11-15T04:40:27.075Z,12.66
2023-11-15T04:42:56.011Z,12.34
2023-11-15T04:45:23.586Z,12.22
2023-11-15T04:47:51.424Z,12.37
2023-11-15T04:50:19.059Z,12.72
2023-11-15T04:52:46.730Z,13.28
2023-11-15T04:55:14.426Z,13.28
2023-11-15T04:57:42.165Z,13.67
2023-11-15T05:00:12.708Z,13.69
2023-11-15T05:02:40.615Z,13.00
2023-11-15T05:05:08.602Z,13.06
2023-11-15T05:07:38.001Z,12.90
2023-11-15T05:10:06.224Z,13.49
2023-11-15T05:12:33.909Z,12.49
2023-11-15T05:15:01.579Z,12.87
2023-11-15T05:17:30.758Z,12.98
2023-11-15T05:19:58.346Z,13.26
2023-11-15T05:22:25.908Z,13.59
2023-11-15T05:24:55.330Z,12.46
2023-11-15T05:27:24.093Z,11.60
2023-11-15T05:29:51.851Z,11.25
2023-11-15T05:32:19.606Z,10.89
2023-11-15T05:34:48.602Z,10.76
2023-11-15T05:37:16.285Z,10.42
2023-11-15T05:39:44.960Z,10.29
2023-11-15T05:42:12.531Z,10.26
2023-11-15T05:44:40.485Z,10.19
2023-11-15T05:47:08.166Z,10.19
2023-11-15T05:49:35.929Z,10.11
2023-11-15T05:52:05.757Z,9.87
2023-11-15T05:54:33.381Z,9.83
2023-11-15T05:57:01.138Z,9.88
2023-11-15T05:59:28.834Z,9.93
2023-11-15T06:01:56.623Z,9.86
2023-11-15T06:04:24.375Z,9.92
2023-11-15T06:06:52.154Z,9.90
2023-11-15T06:09:22.323Z,9.89
2023-11-15T06:11:50.010Z,9.91
2023-11-15T06:14:18.403Z,9.92
2023-11-15T06:16:46.036Z,9.78
2023-11-15T06:19:13.642Z,9.77
2023-11-15T06:21:44.116Z,9.80
2023-11-15T06:24:13.986Z,9.74
2023-11-15T06:26:45.443Z,9.79
2023-11-15T06:29:13.141Z,9.78
2023-11-15T06:31:40.728Z,9.80
2023-11-15T06:34:10.198Z,9.78
2023-11-15T06:36:42.217Z,9.64
2023-11-15T06:39:13.212Z,9.73
2023-11-15T06:41:41.192Z,9.66
2023-11-15T06:44:11.511Z,9.70
2023-11-15T06:46:39.971Z,9.72
2023-11-15T06:49:11.668Z,9.78
2023-11-15T06:51:39.617Z,9.78
2023-11-15T06:54:08.111Z,9.64
2023-11-15T06:56:35.848Z,9.66
2023-11-15T06:59:03.710Z,9.65
2023-11-15T07:01:32.796Z,9.71
2023-11-15T07:04:00.531Z,9.71
2023-11-15T07:06:28.655Z,9.55
2023-11-15T07:08:57.672Z,9.58
2023-11-15T07:11:26.099Z,9.54
2023-11-15T07:13:54.915Z,9.51
2023-11-15T07:16:22.758Z,9.39
2023-11-15T07:18:51.833Z,9.48
2023-11-15T07:21:20.641Z,9.59
2023-11-15T07:23:49.236Z,9.40
2023-11-15T07:26:16.904Z,9.47
2023-11-15T07:28:44.913Z,9.37
2023-11-15T07:31:15.646Z,9.46
2023-11-15T07:33:44.314Z,9.34
2023-11-15T07:36:13.663Z,9.55
2023-11-15T07:38:41.530Z,9.75
2023-11-15T07:41:09.183Z,9.80
2023-11-15T07:43:36.959Z,9.87
2023-11-15T07:46:10.913Z,9.72
2023-11-15T07:48:38.675Z,9.86
2023-11-15T07:51:08.362Z,9.84
2023-11-15T07:53:38.078Z,9.85
2023-11-15T07:56:07.367Z,9.86
2023-11-15T07:58:35.658Z,9.91
2023-11-15T08:01:03.334Z,9.99
2023-11-15T08:03:31.130Z,10.04
2023-11-15T08:05:59.113Z,10.11
2023-11-15T08:08:26.826Z,10.04
2023-11-15T08:10:55.828Z,10.00
2023-11-15T08:13:24.100Z,10.09
2023-11-15T08:15:51.843Z,10.08
2023-11-15T08:18:19.636Z,10.19
2023-11-15T08:20:47.968Z,10.10
2023-11-15T08:23:16.144Z,10.21
2023-11-15T08:25:51.488Z,10.28
2023-11-15T08:28:21.180Z,10.36
2023-11-15T08:30:49.327Z,10.31
2023-11-15T08:33:17.779Z,10.35
2023-11-15T08:35:48.185Z,10.41
2023-11-15T08:38:15.803Z,10.52
2023-11-15T08:40:49.988Z,10.61
2023-11-15T08:43:18.445Z,10.59
2023-11-15T08:45:48.418Z,10.72
2023-11-15T08:48:18.970Z,10.65
2023-11-15T08:50:49.120Z,10.65
2023-11-15T08:53:19.687Z,10.82
2023-11-15T08:55:47.269Z,10.97
2023-11-15T08:58:15.537Z,10.83
2023-11-15T09:00:45.125Z,11.80
2023-11-15T09:03:15.295Z,12.45
2023-11-15T09:05:45.227Z,11.96
2023-11-15T09:08:12.888Z,12.06
2023-11-15T09:10:40.449Z,12.03
2023-11-15T09:13:09.675Z,12.19
2023-11-15T09:15:37.405Z,12.06
2023-11-15T09:18:07.475Z,12.09
2023-11-15T09:20:36.539Z,12.19
2023-11-15T09:23:10.874Z,11.99
2023-11-15T09:25:40.849Z,12.05
2023-11-15T09:28:08.414Z,12.02
2023-11-15T09:30:36.534Z,12.19
2023-11-15T09:33:06.404Z,12.46
2023-11-15T09:35:38.790Z,12.58
2023-11-15T09:38:12.051Z,12.44
2023-11-15T09:40:39.836Z,12.50
2023-11-15T09:43:07.449Z,12.64
2023-11-15T09:45:39.891Z,12.55
2023-11-15T09:48:10.334Z,12.26
2023-11-15T09:50:39.510Z,12.09
2023-11-15T09:53:07.297Z,12.01
2023-11-15T09:55:36.284Z,12.11
2023-11-15T09:58:04.520Z,11.55
2023-11-15T10:00:33.207Z,11.35
2023-11-15T10:03:01.589Z,11.40
2023-11-15T10:05:29.573Z,11.18
2023-11-15T10:08:10.111Z,11.15
2023-11-15T10:10:43.022Z,11.02
2023-11-15T10:13:14.999Z,10.94
2023-11-15T10:15:45.047Z,10.76
2023-11-15T10:18:15.322Z,10.43
2023-11-15T10:20:44.439Z,10.41
2023-11-15T10:23:14.385Z,10.25
2023-11-15T10:25:51.915Z,10.59
2023-11-15T10:28:23.263Z,10.82
2023-11-15T10:31:01.497Z,10.75
2023-11-15T10:33:33.111Z,10.83
2023-11-15T10:36:17.632Z,11.16
2023-11-15T10:38:49.462Z,11.31
2023-11-15T10:41:20.801Z,11.47
2023-11-15T10:43:49.852Z,11.68
2023-11-15T10:46:19.904Z,11.52
2023-11-15T10:48:50.785Z,11.78
2023-11-15T10:51:23.348Z,11.65
2023-11-15T10:53:51.458Z,11.54
2023-11-15T10:56:23.341Z,11.65
2023-11-15T10:58:52.276Z,11.33
2023-11-15T11:01:20.518Z,11.49
2023-11-15T11:03:50.540Z,11.62
2023-11-15T11:06:25.252Z,11.89
2023-11-15T11:09:03.394Z,11.77
2023-11-15T11:11:41.659Z,11.69
2023-11-15T11:14:16.909Z,11.67
2023-11-15T11:16:45.429Z,11.56
2023-11-15T11:19:15.250Z,11.75
2023-11-15T11:22:08.769Z,11.92
2023-11-15T11:24:39.752Z,11.99
2023-11-15T11:27:35.045Z,12.15
2023-11-15T11:30:21.293Z,11.97
2023-11-15T11:32:51.800Z,12.10
2023-11-15T11:35:36.051Z,12.23
2023-11-15T11:38:07.733Z,12.24
2023-11-15T11:40:40.139Z,12.46
2023-11-15T11:43:31.114Z,12.45
2023-11-15T11:46:13.178Z,12.32
2023-11-15T11:48:40.862Z,12.03
2023-11-15T11:51:09.126Z,11.60
2023-11-15T11:53:39.509Z,11.48
2023-11-15T11:56:11.507Z,11.87
2023-11-15T11:58:41.222Z,11.84
2023-11-15T12:01:11.533Z,11.68
2023-11-15T12:03:42.294Z,11.67
2023-11-15T12:06:12.259Z,12.11
2023-11-15T12:08:41.210Z,12.28
2023-11-15T12:11:11.446Z,12.09
2023-11-15T12:13:49.459Z,12.27
2023-11-15T12:16:18.567Z,12.20
2023-11-15T12:18:59.074Z,12.03
2023-11-15T12:21:27.440Z,12.22
2023-11-15T12:23:55.062Z,12.44
2023-11-15T12:26:23.307Z,12.74
2023-11-15T12:28:52.787Z,12.92
2023-11-15T12:31:20.687Z,12.98
2023-11-15T12:33:48.698Z,12.50
2023-11-15T12:36:17.570Z,12.26
2023-11-15T12:38:55.960Z,12.00
2023-11-15T12:41:24.338Z,11.79
2023-11-15T12:44:04.279Z,11.68
2023-11-15T12:46:32.216Z,11.47
2023-11-15T12:49:00.217Z,11.29
2023-11-15T12:51:27.928Z,11.18
2023-11-15T12:53:57.075Z,11.20
2023-11-15T12:56:25.065Z,11.13
2023-11-15T12:58:55.410Z,10.71
2023-11-15T13:01:24.429Z,10.63
2023-11-15T13:04:00.585Z,10.55
2023-11-15T13:06:30.682Z,10.40
2023-11-15T13:09:01.510Z,10.33
2023-11-15T13:11:30.385Z,10.43
2023-11-15T13:13:58.873Z,10.43
2023-11-15T13:16:28.122Z,10.61
2023-11-15T13:18:55.995Z,11.22
2023-11-15T13:21:27.480Z,11.71
2023-11-15T13:23:55.560Z,12.05
2023-11-15T13:26:25.667Z,12.46
2023-11-15T13:28:54.006Z,12.69
2023-11-15T13:31:24.947Z,12.33
2023-11-15T13:33:56.870Z,12.04
2023-11-15T13:36:26.254Z,11.97
2023-11-15T13:38:54.261Z,11.98
2023-11-15T13:41:24.117Z,11.77
2023-11-15T13:43:53.187Z,11.72
2023-11-15T13:46:23.921Z,12.15
2023-11-15T13:48:53.777Z,12.95
2023-11-15T13:51:24.136Z,13.95
2023-11-15T13:53:52.048Z,14.06
2023-11-15T13:56:20.887Z,13.45
2023-11-15T13:58:48.928Z,12.68
2023-11-15T14:01:16.597Z,12.47
2023-11-15T14:03:44.662Z,12.05
2023-11-15T14:06:12.874Z,11.84
2023-11-15T14:11:14.448Z,11.76
2023-11-15T14:13:43.966Z,11.69
2023-11-15T14:16:12.393Z,11.67
2023-11-15T14:18:40.242Z,11.72
2023-11-15T14:21:08.562Z,12.96
2023-11-15T14:23:36.216Z,14.33
2023-11-15T14:26:05.773Z,14.86
2023-11-15T14:28:34.119Z,15.12
2023-11-15T14:31:02.653Z,14.90
2023-11-15T14:33:30.431Z,14.41
2023-11-15T14:35:58.116Z,13.87
2023-11-15T14:38:25.714Z,13.63
2023-11-15T14:40:53.851Z,13.55
2023-11-15T14:43:24.013Z,13.28
2023-11-15T14:45:51.685Z,13.06
2023-11-15T14:48:19.392Z,13.18
2023-11-15T14:50:47.881Z,13.63
2023-11-15T14:53:31.311Z,13.62
2023-11-15T14:55:59.267Z,13.16
2023-11-15T14:58:28.655Z,12.54
2023-11-15T15:00:57.191Z,12.20
2023-11-15T15:03:25.774Z,12.01
2023-11-15T15:05:53.647Z,11.92
2023-11-15T15:08:22.471Z,11.83
2023-11-15T15:10:54.311Z,11.76
2023-11-15T15:13:22.266Z,11.63
2023-11-15T15:15:51.425Z,11.62
2023-11-15T15:18:22.292Z,11.59
2023-11-15T15:20:58.838Z,11.47
2023-11-15T15:23:26.825Z,11.33
2023-11-15T15:25:55.277Z,11.23
2023-11-15T15:28:22.860Z,10.91
2023-11-15T15:30:54.388Z,11.01
2023-11-15T15:33:22.824Z,11.00
2023-11-15T15:35:51.016Z,10.92
2023-11-15T15:38:18.715Z,10.82
2023-11-15T15:40:46.376Z,10.78
2023-11-15T15:43:16.604Z,10.68
2023-11-15T15:45:45.889Z,10.60
2023-11-15T15:48:15.061Z,10.54
2023-11-15T15:50:42.714Z,10.50
2023-11-15T15:53:10.518Z,10.49
2023-11-15T15:55:38.256Z,10.45
2023-11-15T15:58:06.516Z,10.41
2023-11-15T16:00:34.204Z,10.39
2023-11-15T16:03:01.880Z,10.23
2023-11-15T16:05:30.962Z,10.22
2023-11-15T16:07:58.666Z,10.21
2023-11-15T16:10:26.314Z,10.13
2023-11-15T16:12:53.926Z,10.10
2023-11-15T16:15:21.727Z,10.06
2023-11-15T16:17:49.946Z,10.10
2023-11-15T16:20:18.361Z,10.13
2023-11-15T16:22:47.451Z,10.05
2023-11-15T16:25:15.140Z,10.05
2023-11-15T16:27:42.866Z,9.99
2023-11-15T16:30:14.142Z,10.01
2023-11-15T16:32:42.207Z,10.03
2023-11-15T16:35:10.563Z,9.98
2023-11-15T16:37:40.883Z,9.93
2023-11-15T16:40:12.667Z,9.96
2023-11-15T16:42:40.978Z,9.84
2023-11-15T16:45:09.816Z,9.93
2023-11-15T16:47:37.831Z,9.83
2023-11-15T16:50:06.181Z,9.90
2023-11-15T16:52:34.384Z,9.96
2023-11-15T16:55:02.238Z,10.03
2023-11-15T16:57:31.242Z,10.07
2023-11-15T16:59:59.859Z,10.08
2023-11-15T17:02:27.823Z,9.97
2023-11-15T17:04:55.579Z,10.01
2023-11-15T17:07:23.331Z,9.94
2023-11-15T17:09:52.449Z,10.00
2023-11-15T17:12:20.793Z,9.96
2023-11-15T17:14:49.855Z,9.92
2023-11-15T17:17:17.471Z,9.91
2023-11-15T17:19:45.841Z,9.82
2023-11-15T17:22:14.192Z,9.73
2023-11-15T17:24:41.824Z,9.78
2023-11-15T17:27:09.599Z,9.76
2023-11-15T17:29:37.559Z,9.69
2023-11-15T17:32:07.618Z,9.65
2023-11-15T17:34:35.330Z,9.65
2023-11-15T17:37:03.453Z,9.58
2023-11-15T17:39:31.183Z,9.58
2023-11-15T17:41:59.196Z,9.56
2023-11-15T17:44:26.852Z,9.48
2023-11-15T17:46:54.575Z,9.47
2023-11-15T17:49:23.537Z,9.45
2023-11-15T17:51:51.084Z,9.43
2023-11-15T17:54:19.886Z,9.44
2023-11-15T17:56:47.618Z,9.37
2023-11-15T17:59:15.464Z,9.39
2023-11-15T18:01:43.931Z,9.41
2023-11-15T18:04:15.204Z,9.40
2023-11-15T18:06:44.488Z,9.35
2023-11-15T18:09:12.854Z,9.36
2023-11-15T18:11:40.481Z,9.37
2023-11-15T18:14:08.127Z,9.40
2023-11-15T18:16:36.033Z,9.37
2023-11-15T18:19:06.317Z,9.34
2023-11-15T18:21:34.462Z,9.33
2023-11-15T18:24:03.546Z,9.31
2023-11-15T18:26:32.775Z,9.32
2023-11-15T18:29:01.920Z,9.30
2023-11-15T18:31:29.918Z,9.30
2023-11-15T18:33:59.064Z,9.29
2023-11-15T18:36:27.500Z,9.28
2023-11-15T18:38:55.663Z,9.26
2023-11-15T18:41:24.603Z,9.25
2023-11-15T18:43:53.948Z,9.24
2023-11-15T18:46:22.309Z,9.21
2023-11-15T18:48:50.062Z,9.23
2023-11-15T18:51:23.064Z,9.25
2023-11-15T18:53:51.653Z,9.28
2023-11-15T18:56:19.375Z,9.32
2023-11-15T18:58:49.886Z,9.29
2023-11-15T19:01:18.939Z,9.27
2023-11-15T19:03:48.850Z,9.24
2023-11-15T19:06:16.583Z,9.18
2023-11-15T19:08:44.175Z,9.15
2023-11-15T19:11:11.724Z,9.12
2023-11-15T19:13:41.222Z,9.08
2023-11-15T19:16:10.499Z,9.12
2023-11-15T19:18:38.289Z,9.11
2023-11-15T19:21:06.393Z,9.08
2023-11-15T19:23:34.072Z,9.13
2023-11-15T19:26:01.639Z,9.19
2023-11-15T19:28:29.252Z,9.33
2023-11-15T19:30:56.802Z,11.16
2023-11-15T19:33:25.896Z,12.07
2023-11-15T19:35:53.584Z,12.63
2023-11-15T19:38:21.188Z,12.19
2023-11-15T19:40:48.869Z,11.43
2023-11-15T19:43:16.566Z,10.94
2023-11-15T19:45:45.391Z,10.56
2023-11-15T19:48:13.246Z,10.22
2023-11-15T19:50:42.280Z,9.98
2023-11-15T19:53:10.561Z,9.87
2023-11-15T19:55:39.483Z,9.66
2023-11-15T19:58:07.063Z,9.57
2023-11-15T20:00:36.199Z,9.48
2023-11-15T20:03:04.699Z,9.45
2023-11-15T20:05:32.703Z,9.41
2023-11-15T20:08:01.611Z,9.43
2023-11-15T20:10:29.511Z,9.38
2023-11-15T20:12:59.048Z,10.27
2023-11-15T20:15:27.397Z,11.52
2023-11-15T20:17:55.087Z,11.43
2023-11-15T20:20:24.229Z,10.67
2023-11-15T20:22:53.213Z,10.15
2023-11-15T20:25:23.539Z,9.76
2023-11-15T20:27:51.109Z,9.54
2023-11-15T20:30:21.918Z,9.38
2023-11-15T20:32:50.141Z,9.29
2023-11-15T20:35:18.410Z,9.22
2023-11-15T20:37:45.994Z,9.07
2023-11-15T20:40:16.258Z,9.05
2023-11-15T20:42:47.936Z,9.02
2023-11-15T20:45:16.050Z,8.93
2023-11-15T20:47:43.904Z,8.90
2023-11-15T20:50:12.641Z,10.44
2023-11-15T20:52:40.573Z,11.77
2023-11-15T20:55:09.859Z,10.97
2023-11-15T20:57:37.843Z,10.14
2023-11-15T21:00:13.641Z,9.58
2023-11-15T21:02:41.833Z,9.26
2023-11-15T21:05:11.969Z,9.06
2023-11-15T21:07:40.098Z,8.89
2023-11-15T21:10:09.977Z,8.79
2023-11-15T21:12:37.852Z,8.72
2023-11-15T21:15:10.372Z,8.64
2023-11-15T21:17:38.544Z,8.56
2023-11-15T21:20:11.481Z,8.52
2023-11-15T21:22:40.745Z,8.47
2023-11-15T21:25:12.325Z,8.41
2023-11-15T21:27:41.017Z,8.34
2023-11-15T21:30:12.113Z,8.28
2023-11-15T21:32:41.192Z,8.24
2023-11-15T21:35:10.676Z,8.26
2023-11-15T21:37:42.707Z,8.22
2023-11-15T21:40:12.690Z,8.21
2023-11-15T21:42:40.489Z,8.14
2023-11-15T21:45:12.050Z,8.10
2023-11-15T21:47:40.387Z,8.10
2023-11-15T21:50:11.183Z,8.05
2023-11-15T21:52:38.999Z,7.96
2023-11-15T21:55:08.206Z,7.89
2023-11-15T21:57:37.292Z,7.88
2023-11-15T22:00:07.769Z,7.85
2023-11-15T22:02:37.098Z,7.88
2023-11-15T22:05:06.083Z,7.84
2023-11-15T22:07:33.698Z,7.82
2023-11-15T22:10:01.334Z,7.79
2023-11-15T22:12:29.008Z,7.75
2023-11-15T22:14:56.707Z,7.67
2023-11-15T22:17:24.304Z,7.68
2023-11-15T22:19:53.221Z,7.63
2023-11-15T22:22:20.885Z,7.40
2023-11-15T22:24:48.638Z,7.35
2023-11-15T22:27:16.314Z,7.01
2023-11-15T22:29:44.049Z,7.06
2023-11-15T22:32:11.594Z,6.98
2023-11-15T22:34:39.541Z,7.21
2023-11-15T22:37:09.825Z,7.10
2023-11-15T22:39:37.551Z,7.19
2023-11-15T22:42:05.935Z,7.24
2023-11-15T22:44:33.669Z,7.27
2023-11-15T22:47:01.204Z,7.31
2023-11-15T22:49:28.728Z,7.26
2023-11-15T22:51:56.326Z,7.08
2023-11-15T22:54:25.362Z,6.83
2023-11-15T22:56:53.268Z,6.75
2023-11-15T22:59:20.846Z,6.94
2023-11-15T23:01:49.527Z,7.08
2023-11-15T23:04:18.911Z,7.14
2023-11-15T23:06:46.860Z,7.15
2023-11-15T23:09:15.900Z,7.19
2023-11-15T23:11:44.845Z,7.15
2023-11-15T23:14:12.422Z,7.13
2023-11-15T23:16:41.360Z,7.09
2023-11-15T23:19:10.490Z,7.10
2023-11-15T23:21:41.352Z,7.06
2023-11-15T23:24:13.090Z,7.04
2023-11-15T23:26:40.681Z,7.13
2023-11-15T23:29:11.270Z,6.95
2023-11-15T23:31:38.861Z,6.97
2023-11-15T23:34:07.817Z,6.93
2023-11-15T23:36:36.199Z,6.93
2023-11-15T23:39:06.208Z,6.99
2023-11-15T23:41:34.422Z,6.89
2023-11-15T23:44:03.838Z,6.50
2023-11-15T23:46:32.788Z,6.57
2023-11-15T23:49:00.807Z,6.74
2023-11-15T23:51:28.400Z,6.78
2023-11-15T23:53:55.950Z,6.56
2023-11-15T23:56:23.535Z,6.69
2023-11-15T23:58:51.173Z,6.82
